Silda — 9HA4224 — position and weather

sailwx.info

Track history (hours):
 
Tides and Currents Weather Stations Pressure Air Temp Water Temp Dewpoint Dewpoint Depression Visibility Wind Speed Wind Dir Waves Ship Positions

Silda

Last reported at 2018-Feb-10 18:14 UTC. Time now 2018-Feb-19 04:32 UTC.
Position N 49°47' W 003°26'.
Warning: this ship's position is 8 days out of date.

Length 148 m; draft 8.4 m.

Type: Cargo ship. MMSI: 249381000.

Date/timePositionNaut miles runAvg speedWind from/ knotsBaromVisibWave heightAir tempDewpointWater temp
2018-Feb-10 18:14N 49°47' W 003°26'3 8.5
2018-Feb-10 17:52N 49°49' W 003°22'3 7.9
2018-Feb-10 17:30N 49°50' W 003°18'4 7.8
2018-Feb-10 16:57N 49°52' W 003°12'4 7.3
2018-Feb-10 16:25N 49°54' W 003°07'3 7.2
2018-Feb-10 16:00N 49°56' W 003°03'3 6.6
2018-Feb-10 15:30N 49°57' W 002°58'4 7.2
2018-Feb-10 15:00N 49°58' W 002°53'4 7.5
2018-Feb-10 14:30N 49°59' W 002°47'4 7.7
2018-Feb-10 13:58N 50°00' W 002°41'5 8.1
2018-Feb-10 13:22N 50°01' W 002°34'4 8.5
2018-Feb-10 12:55N 50°02' W 002°28'2110.0
2018-Feb-10 10:47N 50°03' W 001°55'311.1
2018-Feb-10 10:30N 50°02' W 001°50'612.0
2018-Feb-10 10:00N 49°59' W 001°42'612.4
2018-Feb-10 09:30N 49°57' W 001°33'612.6
2018-Feb-10 09:00N 49°54' W 001°24'612.7
2018-Feb-10 08:30N 49°51' W 001°15'612.3
2018-Feb-10 08:00N 49°48' W 001°07'611.7
2018-Feb-10 07:30N 49°46' W 000°58'511.2
2018-Feb-10 07:00N 49°43' W 000°51'510.7
2018-Feb-10 06:30N 49°41' W 000°44'510.4
2018-Feb-10 06:00N 49°39' W 000°36'510.1
2018-Feb-10 05:30N 49°37' W 000°29'510.0
2018-Feb-10 05:00N 49°34' W 000°22'510.0
2018-Feb-10 04:30N 49°32' W 000°15'510.0
2018-Feb-10 04:00N 49°30' W 000°08'5 9.8
2018-Feb-10 03:30N 49°28' W 000°01'5 9.7
2018-Feb-10 03:00N 49°26' E 000°05'510.8
2018-Feb-10 02:30N 49°26' E 000°14'611.3
2018-Feb-10 02:00N 49°26' E 000°22'611.7
2018-Feb-10 01:30N 49°29' E 000°30'510.0
2018-Feb-10 01:00N 49°26' E 000°36'611.8
2018-Feb-10 00:30N 49°31' E 000°41'4 7.9
2018-Feb-10 00:00N 49°29' E 000°46'4 8.4
2018-Feb-09 23:30N 49°25' E 000°48'2 4.7
2018-Feb-09 23:00N 49°25' E 000°52'311.2
2018-Feb-09 22:46N 49°28' E 000°52'7 0.7
2018-Feb-09 12:30N 49°25' E 001°01'0 0.0
2018-Feb-08 08:30N 49°25' E 001°01'1 2.2
2018-Feb-08 08:00N 49°26' E 001°02'0 0.8
2018-Feb-08 07:30N 49°25' E 001°01'4 2.9
2018-Feb-08 06:00N 49°24' E 000°55'4 7.5
2018-Feb-08 05:30N 49°27' E 000°56'3 5.6
2018-Feb-08 05:00N 49°29' E 000°52'4 7.9
2018-Feb-08 04:30N 49°25' E 000°52'3 5.7
2018-Feb-08 04:00N 49°26' E 000°48'4 8.0
2018-Feb-08 03:30N 49°30' E 000°46'8 7.7
2018-Feb-08 02:30N 49°26' E 000°36'611.1
2018-Feb-08 02:00N 49°29' E 000°30'713.1
2018-Feb-08 01:30N 49°26' E 000°21'611.7
2018-Feb-08 01:00N 49°26' E 000°12'612.1
2018-Feb-08 00:30N 49°27' E 000°03'510.2
2018-Feb-08 00:00N 49°29' W 000°05'2 3.8
2018-Feb-07 23:30N 49°28' W 000°07'0 0.1
2018-Feb-07 22:58N 49°28' W 000°08'0 0.0
2018-Feb-07 22:28N 49°28' W 000°08'0 0.1
2018-Feb-07 21:58N 49°28' W 000°07'0 0.0
2018-Feb-07 21:31N 49°28' W 000°07'0 0.0
2018-Feb-07 09:28N 49°28' W 000°07'0 0.0
2018-Feb-07 08:58N 49°28' W 000°07'0 0.0
2018-Feb-07 08:28N 49°28' W 000°07'0 0.0
2018-Feb-07 07:58N 49°28' W 000°07'0 0.0
2018-Feb-07 07:28N 49°28' W 000°07'0 0.0
2018-Feb-07 06:58N 49°28' W 000°07'0 0.0
2018-Feb-07 06:28N 49°28' W 000°07'0 0.0
2018-Feb-07 05:58N 49°28' W 000°07'0 0.0
2018-Feb-07 05:28N 49°28' W 000°07'0 0.1
2018-Feb-07 04:58N 49°28' W 000°07'1 2.9
2018-Feb-07 04:30N 49°28' W 000°09'4 7.6
2018-Feb-07 04:00N 49°30' W 000°15'510.7
2018-Feb-07 03:30N 49°33' W 000°21'611.7
2018-Feb-07 03:00N 49°39' W 000°24'612.0
2018-Feb-07 02:30N 49°44' W 000°26'611.1
2018-Feb-07 02:00N 49°50' W 000°28'510.5
2018-Feb-07 01:30N 49°54' W 000°23'510.3
2018-Feb-07 01:00N 49°58' W 000°20'510.6
2018-Feb-07 00:30N 50°03' W 000°16'510.9
2018-Feb-07 00:00N 50°08' W 000°13'711.3
2018-Feb-06 23:22N 50°15' W 000°09'411.7
2018-Feb-06 23:00N 50°19' W 000°07'612.0
2018-Feb-06 22:30N 50°25' W 000°04'1211.8
2018-Feb-06 21:30N 50°31' E 000°12'612.8
2018-Feb-06 21:00N 50°34' E 000°21'713.1
2018-Feb-06 20:30N 50°36' E 000°31'712.9
2018-Feb-06 19:58N 50°39' E 000°40'612.7
2018-Feb-06 19:30N 50°43' E 000°48'612.3
2018-Feb-06 19:00N 50°46' E 000°56'611.9
2018-Feb-06 18:28N 50°50' E 001°03'611.4
2018-Feb-06 17:59N 50°54' E 001°10'510.8
2018-Feb-06 17:30N 50°58' E 001°16'5 9.8
2018-Feb-06 17:00N 51°01' E 001°22'5 9.5
2018-Feb-06 16:30N 51°04' E 001°27'5 9.5
2018-Feb-06 16:00N 51°07' E 001°33'5 9.9
2018-Feb-06 15:30N 51°10' E 001°39'510.1
2018-Feb-06 15:00N 51°13' E 001°45'2512.4
2018-Feb-06 13:00N 51°34' E 002°08'713.5
2018-Feb-06 12:29N 51°39' E 002°16'613.7
2018-Feb-06 12:00N 51°44' E 002°23'67 9.8
2018-Feb-06 05:11N 52°50' E 002°06'2 9.2
2018-Feb-06 05:00N 52°52' E 002°03'5 9.4
2018-Feb-06 04:30N 52°55' E 001°58'2610.4
2018-Feb-06 02:00N 53°09' E 001°22'611.3
2018-Feb-06 01:30N 53°13' E 001°14'4210.9
2018-Feb-05 21:41N 53°32' E 000°13'2 9.3
2018-Feb-05 21:30N 53°32' E 000°10'612.0
2018-Feb-05 21:00N 53°35' E 000°02'611.3
2018-Feb-05 20:30N 53°37' W 000°07'3 4.7
2018-Feb-05 19:58N 53°38' W 000°11'0 0.1
2018-Feb-05 18:10N 53°38' W 000°12'0 0.0
2018-Feb-05 17:46N 53°38' W 000°12'0 0.0
2018-Feb-05 12:19N 53°38' W 000°12'0 0.0
2018-Feb-05 11:49N 53°38' W 000°12'0 0.0
2018-Feb-05 11:19N 53°38' W 000°12'0 0.0
2018-Feb-05 10:52N 53°38' W 000°12'0 0.0
2018-Feb-05 10:22N 53°38' W 000°12'0 0.0
2018-Feb-05 09:37N 53°38' W 000°12'0 0.0
2018-Feb-05 09:25N 53°38' W 000°12'0 0.0
2018-Feb-05 08:55N 53°38' W 000°12'0 0.0
2018-Feb-05 08:28N 53°38' W 000°12'0 0.0
2018-Feb-05 07:49N 53°38' W 000°12'0 0.0
2018-Feb-05 07:25N 53°38' W 000°12'0 0.0
2018-Feb-05 06:58N 53°38' W 000°12'0 0.0
2018-Feb-05 06:19N 53°38' W 000°12'0 0.0
2018-Feb-05 05:28N 53°38' W 000°12'0 0.0
2018-Feb-05 04:58N 53°38' W 000°12'0 0.0
2018-Feb-05 04:28N 53°38' W 000°12'0 0.0
2018-Feb-05 03:55N 53°38' W 000°12'0 0.0
2018-Feb-05 03:28N 53°38' W 000°12'0 0.0
2018-Feb-05 02:49N 53°38' W 000°12'0 0.0
2018-Feb-05 02:28N 53°38' W 000°12'0 0.0
2018-Feb-05 01:55N 53°38' W 000°12'0 0.0
2018-Feb-05 01:28N 53°38' W 000°12'0 0.0
2018-Feb-05 00:58N 53°38' W 000°12'0 0.0
2018-Feb-05 00:28N 53°38' W 000°12'0 0.0
2018-Feb-04 23:58N 53°38' W 000°12'0 0.0
2018-Feb-04 23:28N 53°38' W 000°12'0 0.0
2018-Feb-04 22:52N 53°38' W 000°12'0 0.0
2018-Feb-04 22:28N 53°38' W 000°12'0 0.0
2018-Feb-04 21:55N 53°38' W 000°12'0 0.0
2018-Feb-04 21:25N 53°38' W 000°12'0 0.0
2018-Feb-04 20:58N 53°38' W 000°12'0 0.0
2018-Feb-04 19:55N 53°38' W 000°12'0 0.0
2018-Feb-04 19:28N 53°38' W 000°12'0 0.0
2018-Feb-04 18:58N 53°38' W 000°12'0 0.0
2018-Feb-04 18:28N 53°38' W 000°12'0 0.0
2018-Feb-04 17:55N 53°38' W 000°12'0 0.0
2018-Feb-04 17:28N 53°38' W 000°12'0 0.0
2018-Feb-04 15:16N 53°38' W 000°12'0 0.0
2018-Feb-04 14:58N 53°38' W 000°12'0 0.0
2018-Feb-04 13:37N 53°38' W 000°12'0 0.0
2018-Feb-04 13:19N 53°38' W 000°12'0 0.0
2018-Feb-04 12:58N 53°38' W 000°12'0 0.0
2018-Feb-04 12:25N 53°38' W 000°12'0 0.0
2018-Feb-04 11:55N 53°38' W 000°12'0 0.0
2018-Feb-04 11:19N 53°38' W 000°12'0 0.0
2018-Feb-04 07:49N 53°38' W 000°12'0 0.0
2018-Feb-04 07:22N 53°38' W 000°12'0 0.0
2018-Feb-04 06:55N 53°38' W 000°12'0 0.0
2018-Feb-04 06:28N 53°38' W 000°12'0 0.0
2018-Feb-04 05:49N 53°38' W 000°12'0 0.0
2018-Feb-04 05:25N 53°38' W 000°12'0 0.0
2018-Feb-04 04:58N 53°38' W 000°12'0 0.0
2018-Feb-04 04:22N 53°38' W 000°12'0 0.0
2018-Feb-04 03:58N 53°38' W 000°12'0 0.0
2018-Feb-04 03:28N 53°38' W 000°12'0 0.0
2018-Feb-04 02:52N 53°38' W 000°12'0 0.0
2018-Feb-04 02:28N 53°38' W 000°12'0 0.0
2018-Feb-04 01:58N 53°38' W 000°12'0 0.0
2018-Feb-04 01:28N 53°38' W 000°12'0 0.0
2018-Feb-04 00:58N 53°38' W 000°12'0 0.0
2018-Feb-04 00:28N 53°38' W 000°12'0 0.0
2018-Feb-03 23:58N 53°38' W 000°12'0 0.0
2018-Feb-03 23:25N 53°38' W 000°12'0 0.0
2018-Feb-03 22:58N 53°38' W 000°12'0 0.0
2018-Feb-03 22:28N 53°38' W 000°12'0 0.0
2018-Feb-03 21:58N 53°38' W 000°12'0 0.0
2018-Feb-03 21:25N 53°38' W 000°12'0 0.0
2018-Feb-03 20:58N 53°38' W 000°12'0 0.0
2018-Feb-03 20:28N 53°38' W 000°12'0 0.0
2018-Feb-03 19:58N 53°38' W 000°12'0 0.0
2018-Feb-03 18:25N 53°38' W 000°12'0 0.0
2018-Feb-03 17:58N 53°38' W 000°12'0 0.0
2018-Feb-03 17:28N 53°38' W 000°12'0 0.0
2018-Feb-03 16:58N 53°38' W 000°12'0 0.0
2018-Feb-03 15:37N 53°38' W 000°12'0 0.0
2018-Feb-03 15:28N 53°38' W 000°12'0 0.0
2018-Feb-03 14:58N 53°38' W 000°12'0 0.0
2018-Feb-03 14:28N 53°38' W 000°12'0 0.0
2018-Feb-03 13:58N 53°38' W 000°12'0 0.0
2018-Feb-03 13:28N 53°38' W 000°12'0 0.0
2018-Feb-03 12:58N 53°38' W 000°12'0 0.0
2018-Feb-03 12:25N 53°38' W 000°12'0 0.0
2018-Feb-03 11:58N 53°38' W 000°12'0 0.0
2018-Feb-03 11:28N 53°38' W 000°12'0 0.0
2018-Feb-03 10:55N 53°38' W 000°12'0 0.0
2018-Feb-03 10:28N 53°38' W 000°12'0 0.0
2018-Feb-03 09:55N 53°38' W 000°12'0 0.0
2018-Feb-03 09:28N 53°38' W 000°12'0 0.0
2018-Feb-03 08:58N 53°38' W 000°12'0 0.0
2018-Feb-03 08:28N 53°38' W 000°12'0 0.0
2018-Feb-03 07:58N 53°38' W 000°12'0 0.0
2018-Feb-03 06:28N 53°38' W 000°12'0 0.0
2018-Feb-03 05:58N 53°38' W 000°12'0 0.0
2018-Feb-03 05:28N 53°38' W 000°12'0 0.0
2018-Feb-03 04:58N 53°38' W 000°12'0 0.0
2018-Feb-03 03:58N 53°38' W 000°12'0 0.0
2018-Feb-03 03:28N 53°38' W 000°12'0 0.0
2018-Feb-03 01:58N 53°38' W 000°12'0 0.0
2018-Feb-03 01:28N 53°38' W 000°12'0 0.0
2018-Feb-03 00:58N 53°38' W 000°12'0 0.0
2018-Feb-03 00:28N 53°38' W 000°12'0 0.0
2018-Feb-02 23:58N 53°38' W 000°12'0 0.0
2018-Feb-02 23:28N 53°38' W 000°12'0 0.0
2018-Feb-02 22:58N 53°38' W 000°12'0 0.0
2018-Feb-02 22:28N 53°38' W 000°12'0 0.0
2018-Feb-02 21:58N 53°38' W 000°12'0 0.0
2018-Feb-02 21:28N 53°38' W 000°12'0 0.0
2018-Feb-02 20:58N 53°38' W 000°12'0 0.0
2018-Feb-02 20:31N 53°38' W 000°12'0 0.0
2018-Feb-02 19:58N 53°38' W 000°12'0 0.0
2018-Feb-02 18:58N 53°38' W 000°12'0 0.0
2018-Feb-02 18:28N 53°38' W 000°12'0 0.0
2018-Feb-02 17:58N 53°38' W 000°12'0 0.0
2018-Feb-02 17:13N 53°38' W 000°12'0 0.0
2018-Feb-02 16:52N 53°38' W 000°12'0 0.0
2018-Feb-02 16:13N 53°38' W 000°12'0 0.0
2018-Feb-02 15:25N 53°38' W 000°12'0 0.0
2018-Feb-02 14:28N 53°38' W 000°12'0 0.0
2018-Feb-02 13:55N 53°38' W 000°12'0 0.0
2018-Feb-02 13:28N 53°38' W 000°12'0 0.0
2018-Feb-02 12:58N 53°38' W 000°12'0 0.0
2018-Feb-02 12:25N 53°38' W 000°12'0 0.0
2018-Feb-02 11:52N 53°38' W 000°12'0 0.0
2018-Feb-02 11:28N 53°38' W 000°12'0 0.0
2018-Feb-02 10:58N 53°38' W 000°12'0 0.0
2018-Feb-02 10:28N 53°38' W 000°12'0 0.0
2018-Feb-02 09:58N 53°38' W 000°12'0 0.0
2018-Feb-02 09:28N 53°38' W 000°12'0 0.0
2018-Feb-02 08:58N 53°38' W 000°12'0 0.0
2018-Feb-02 08:28N 53°38' W 000°12'0 0.0
2018-Feb-02 07:58N 53°38' W 000°12'0 0.0
2018-Feb-02 07:25N 53°38' W 000°12'0 0.0
2018-Feb-02 06:58N 53°38' W 000°12'0 0.0
2018-Feb-02 06:28N 53°38' W 000°12'0 0.0
2018-Feb-02 05:58N 53°38' W 000°12'0 0.0
2018-Feb-02 05:28N 53°38' W 000°12'0 0.0
2018-Feb-02 04:58N 53°38' W 000°12'0 0.0
2018-Feb-02 04:28N 53°38' W 000°12'0 0.0
2018-Feb-02 03:58N 53°38' W 000°12'0 0.0
2018-Feb-02 03:28N 53°38' W 000°12'0 0.0
2018-Feb-02 02:58N 53°38' W 000°12'0 0.0
2018-Feb-02 02:28N 53°38' W 000°12'0 0.0
2018-Feb-02 01:58N 53°38' W 000°12'0 0.0
2018-Feb-02 01:28N 53°38' W 000°12'0 0.0
2018-Feb-02 00:58N 53°38' W 000°12'0 0.0
2018-Feb-02 00:28N 53°38' W 000°12'0 0.0
2018-Feb-01 23:58N 53°38' W 000°12'0 0.0
2018-Feb-01 23:28N 53°38' W 000°12'0 0.0
2018-Feb-01 22:58N 53°38' W 000°12'0 0.0
2018-Feb-01 21:58N 53°38' W 000°12'0 0.0
2018-Feb-01 21:28N 53°38' W 000°12'0 0.0
2018-Feb-01 19:28N 53°38' W 000°12'0 0.0
2018-Feb-01 18:58N 53°38' W 000°12'0 0.0
2018-Feb-01 18:22N 53°38' W 000°12'0 0.0
2018-Feb-01 17:58N 53°38' W 000°12'0 0.0
2018-Feb-01 17:28N 53°38' W 000°12'0 0.0
2018-Feb-01 16:58N 53°38' W 000°12'0 0.0
2018-Feb-01 16:28N 53°38' W 000°12'0 0.0
2018-Feb-01 15:55N 53°38' W 000°12'0 0.0
2018-Feb-01 15:25N 53°38' W 000°12'0 0.0
2018-Feb-01 14:58N 53°38' W 000°12'0 0.0
2018-Feb-01 13:28N 53°38' W 000°12'0 0.0
2018-Feb-01 12:58N 53°38' W 000°12'0 0.0
2018-Feb-01 12:28N 53°38' W 000°12'0 0.0
2018-Feb-01 11:58N 53°38' W 000°12'0 0.0
2018-Feb-01 10:58N 53°38' W 000°12'0 0.0
2018-Feb-01 10:28N 53°38' W 000°12'0 0.0
2018-Feb-01 09:55N 53°38' W 000°12'0 0.0
2018-Feb-01 09:16N 53°38' W 000°12'0 0.0
2018-Feb-01 08:58N 53°38' W 000°12'0 0.0
2018-Feb-01 08:28N 53°38' W 000°12'0 0.0
2018-Feb-01 07:28N 53°38' W 000°12'0 0.0
2018-Feb-01 06:58N 53°38' W 000°12'0 0.0
2018-Feb-01 06:28N 53°38' W 000°12'0 0.0
2018-Feb-01 05:52N 53°38' W 000°12'0 0.0
2018-Feb-01 05:22N 53°38' W 000°12'0 0.0
2018-Feb-01 04:58N 53°38' W 000°12'0 0.0
2018-Feb-01 04:22N 53°38' W 000°12'0 0.0
2018-Feb-01 03:55N 53°38' W 000°12'0 0.0
2018-Feb-01 02:58N 53°38' W 000°12'0 0.0
2018-Feb-01 02:28N 53°38' W 000°12'0 0.0
2018-Feb-01 01:58N 53°38' W 000°12'0 0.0
2018-Feb-01 01:28N 53°38' W 000°12'0 0.0
2018-Feb-01 00:55N 53°38' W 000°12'0 0.0
2018-Feb-01 00:28N 53°38' W 000°12'0 0.0
2018-Jan-31 23:58N 53°38' W 000°12'0 0.0
2018-Jan-31 22:58N 53°38' W 000°12'0 0.0
2018-Jan-31 22:28N 53°38' W 000°12'0 0.0
2018-Jan-31 20:58N 53°38' W 000°12'0 0.0
2018-Jan-31 19:52N 53°38' W 000°12'0 0.0
2018-Jan-31 19:28N 53°38' W 000°12'0 0.0
2018-Jan-31 18:58N 53°38' W 000°12'0 0.0
2018-Jan-31 18:28N 53°38' W 000°12'  
Track history (hours):
 
Tides and Currents Weather Stations Pressure Air Temp Water Temp Dewpoint Dewpoint Depression Visibility Wind Speed Wind Dir Waves Ship Positions

Silda

Last reported at 2018-Feb-10 18:14 UTC. Time now 2018-Feb-19 04:32 UTC.
Position N 49°47' W 003°26'.
Warning: this ship's position is 8 days out of date.

Length 148 m; draft 8.4 m.

Type: Cargo ship. MMSI: 249381000.

Date/timePositionNaut miles runAvg speedWind from/ knotsBaromVisibWave heightAir tempDewpointWater temp
2018-Feb-10 18:14N 49°47' W 003°26'3 8.5
2018-Feb-10 17:52N 49°49' W 003°22'3 7.9
2018-Feb-10 17:30N 49°50' W 003°18'4 7.8
2018-Feb-10 16:57N 49°52' W 003°12'4 7.3
2018-Feb-10 16:25N 49°54' W 003°07'3 7.2
2018-Feb-10 16:00N 49°56' W 003°03'3 6.6
2018-Feb-10 15:30N 49°57' W 002°58'4 7.2
2018-Feb-10 15:00N 49°58' W 002°53'4 7.5
2018-Feb-10 14:30N 49°59' W 002°47'4 7.7
2018-Feb-10 13:58N 50°00' W 002°41'5 8.1
2018-Feb-10 13:22N 50°01' W 002°34'4 8.5
2018-Feb-10 12:55N 50°02' W 002°28'2110.0
2018-Feb-10 10:47N 50°03' W 001°55'311.1
2018-Feb-10 10:30N 50°02' W 001°50'612.0
2018-Feb-10 10:00N 49°59' W 001°42'612.4
2018-Feb-10 09:30N 49°57' W 001°33'612.6
2018-Feb-10 09:00N 49°54' W 001°24'612.7
2018-Feb-10 08:30N 49°51' W 001°15'612.3
2018-Feb-10 08:00N 49°48' W 001°07'611.7
2018-Feb-10 07:30N 49°46' W 000°58'511.2
2018-Feb-10 07:00N 49°43' W 000°51'510.7
2018-Feb-10 06:30N 49°41' W 000°44'510.4
2018-Feb-10 06:00N 49°39' W 000°36'510.1
2018-Feb-10 05:30N 49°37' W 000°29'510.0
2018-Feb-10 05:00N 49°34' W 000°22'510.0
2018-Feb-10 04:30N 49°32' W 000°15'510.0
2018-Feb-10 04:00N 49°30' W 000°08'5 9.8
2018-Feb-10 03:30N 49°28' W 000°01'5 9.7
2018-Feb-10 03:00N 49°26' E 000°05'510.8
2018-Feb-10 02:30N 49°26' E 000°14'611.3
2018-Feb-10 02:00N 49°26' E 000°22'611.7
2018-Feb-10 01:30N 49°29' E 000°30'510.0
2018-Feb-10 01:00N 49°26' E 000°36'611.8
2018-Feb-10 00:30N 49°31' E 000°41'4 7.9
2018-Feb-10 00:00N 49°29' E 000°46'4 8.4
2018-Feb-09 23:30N 49°25' E 000°48'2 4.7
2018-Feb-09 23:00N 49°25' E 000°52'311.2
2018-Feb-09 22:46N 49°28' E 000°52'7 0.7
2018-Feb-09 12:30N 49°25' E 001°01'0 0.0
2018-Feb-08 08:30N 49°25' E 001°01'1 2.2
2018-Feb-08 08:00N 49°26' E 001°02'0 0.8
2018-Feb-08 07:30N 49°25' E 001°01'4 2.9
2018-Feb-08 06:00N 49°24' E 000°55'4 7.5
2018-Feb-08 05:30N 49°27' E 000°56'3 5.6
2018-Feb-08 05:00N 49°29' E 000°52'4 7.9
2018-Feb-08 04:30N 49°25' E 000°52'3 5.7
2018-Feb-08 04:00N 49°26' E 000°48'4 8.0
2018-Feb-08 03:30N 49°30' E 000°46'8 7.7
2018-Feb-08 02:30N 49°26' E 000°36'611.1
2018-Feb-08 02:00N 49°29' E 000°30'713.1
2018-Feb-08 01:30N 49°26' E 000°21'611.7
2018-Feb-08 01:00N 49°26' E 000°12'612.1
2018-Feb-08 00:30N 49°27' E 000°03'510.2
2018-Feb-08 00:00N 49°29' W 000°05'2 3.8
2018-Feb-07 23:30N 49°28' W 000°07'0 0.1
2018-Feb-07 22:58N 49°28' W 000°08'0 0.0
2018-Feb-07 22:28N 49°28' W 000°08'0 0.1
2018-Feb-07 21:58N 49°28' W 000°07'0 0.0
2018-Feb-07 21:31N 49°28' W 000°07'0 0.0
2018-Feb-07 09:28N 49°28' W 000°07'0 0.0
2018-Feb-07 08:58N 49°28' W 000°07'0 0.0
2018-Feb-07 08:28N 49°28' W 000°07'0 0.0
2018-Feb-07 07:58N 49°28' W 000°07'0 0.0
2018-Feb-07 07:28N 49°28' W 000°07'0 0.0
2018-Feb-07 06:58N 49°28' W 000°07'0 0.0
2018-Feb-07 06:28N 49°28' W 000°07'0 0.0
2018-Feb-07 05:58N 49°28' W 000°07'0 0.0
2018-Feb-07 05:28N 49°28' W 000°07'0 0.1
2018-Feb-07 04:58N 49°28' W 000°07'1 2.9
2018-Feb-07 04:30N 49°28' W 000°09'4 7.6
2018-Feb-07 04:00N 49°30' W 000°15'510.7
2018-Feb-07 03:30N 49°33' W 000°21'611.7
2018-Feb-07 03:00N 49°39' W 000°24'612.0
2018-Feb-07 02:30N 49°44' W 000°26'611.1
2018-Feb-07 02:00N 49°50' W 000°28'510.5
2018-Feb-07 01:30N 49°54' W 000°23'510.3
2018-Feb-07 01:00N 49°58' W 000°20'510.6
2018-Feb-07 00:30N 50°03' W 000°16'510.9
2018-Feb-07 00:00N 50°08' W 000°13'711.3
2018-Feb-06 23:22N 50°15' W 000°09'411.7
2018-Feb-06 23:00N 50°19' W 000°07'612.0
2018-Feb-06 22:30N 50°25' W 000°04'1211.8
2018-Feb-06 21:30N 50°31' E 000°12'612.8
2018-Feb-06 21:00N 50°34' E 000°21'713.1
2018-Feb-06 20:30N 50°36' E 000°31'712.9
2018-Feb-06 19:58N 50°39' E 000°40'612.7
2018-Feb-06 19:30N 50°43' E 000°48'612.3
2018-Feb-06 19:00N 50°46' E 000°56'611.9
2018-Feb-06 18:28N 50°50' E 001°03'611.4
2018-Feb-06 17:59N 50°54' E 001°10'510.8
2018-Feb-06 17:30N 50°58' E 001°16'5 9.8
2018-Feb-06 17:00N 51°01' E 001°22'5 9.5
2018-Feb-06 16:30N 51°04' E 001°27'5 9.5
2018-Feb-06 16:00N 51°07' E 001°33'5 9.9
2018-Feb-06 15:30N 51°10' E 001°39'510.1
2018-Feb-06 15:00N 51°13' E 001°45'2512.4
2018-Feb-06 13:00N 51°34' E 002°08'713.5
2018-Feb-06 12:29N 51°39' E 002°16'613.7
2018-Feb-06 12:00N 51°44' E 002°23'67 9.8
2018-Feb-06 05:11N 52°50' E 002°06'2 9.2
2018-Feb-06 05:00N 52°52' E 002°03'5 9.4
2018-Feb-06 04:30N 52°55' E 001°58'2610.4
2018-Feb-06 02:00N 53°09' E 001°22'611.3
2018-Feb-06 01:30N 53°13' E 001°14'4210.9
2018-Feb-05 21:41N 53°32' E 000°13'2 9.3
2018-Feb-05 21:30N 53°32' E 000°10'612.0
2018-Feb-05 21:00N 53°35' E 000°02'611.3
2018-Feb-05 20:30N 53°37' W 000°07'3 4.7
2018-Feb-05 19:58N 53°38' W 000°11'0 0.1
2018-Feb-05 18:10N 53°38' W 000°12'0 0.0
2018-Feb-05 17:46N 53°38' W 000°12'0 0.0
2018-Feb-05 12:19N 53°38' W 000°12'0 0.0
2018-Feb-05 11:49N 53°38' W 000°12'0 0.0
2018-Feb-05 11:19N 53°38' W 000°12'0 0.0
2018-Feb-05 10:52N 53°38' W 000°12'0 0.0
2018-Feb-05 10:22N 53°38' W 000°12'0 0.0
2018-Feb-05 09:37N 53°38' W 000°12'0 0.0
2018-Feb-05 09:25N 53°38' W 000°12'0 0.0
2018-Feb-05 08:55N 53°38' W 000°12'0 0.0
2018-Feb-05 08:28N 53°38' W 000°12'0 0.0
2018-Feb-05 07:49N 53°38' W 000°12'0 0.0
2018-Feb-05 07:25N 53°38' W 000°12'0 0.0
2018-Feb-05 06:58N 53°38' W 000°12'0 0.0
2018-Feb-05 06:19N 53°38' W 000°12'0 0.0
2018-Feb-05 05:28N 53°38' W 000°12'0 0.0
2018-Feb-05 04:58N 53°38' W 000°12'0 0.0
2018-Feb-05 04:28N 53°38' W 000°12'0 0.0
2018-Feb-05 03:55N 53°38' W 000°12'0 0.0
2018-Feb-05 03:28N 53°38' W 000°12'0 0.0
2018-Feb-05 02:49N 53°38' W 000°12'0 0.0
2018-Feb-05 02:28N 53°38' W 000°12'0 0.0
2018-Feb-05 01:55N 53°38' W 000°12'0 0.0
2018-Feb-05 01:28N 53°38' W 000°12'0 0.0
2018-Feb-05 00:58N 53°38' W 000°12'0 0.0
2018-Feb-05 00:28N 53°38' W 000°12'0 0.0
2018-Feb-04 23:58N 53°38' W 000°12'0 0.0
2018-Feb-04 23:28N 53°38' W 000°12'0 0.0
2018-Feb-04 22:52N 53°38' W 000°12'0 0.0
2018-Feb-04 22:28N 53°38' W 000°12'0 0.0
2018-Feb-04 21:55N 53°38' W 000°12'0 0.0
2018-Feb-04 21:25N 53°38' W 000°12'0 0.0
2018-Feb-04 20:58N 53°38' W 000°12'0 0.0
2018-Feb-04 19:55N 53°38' W 000°12'0 0.0
2018-Feb-04 19:28N 53°38' W 000°12'0 0.0
2018-Feb-04 18:58N 53°38' W 000°12'0 0.0
2018-Feb-04 18:28N 53°38' W 000°12'0 0.0
2018-Feb-04 17:55N 53°38' W 000°12'0 0.0
2018-Feb-04 17:28N 53°38' W 000°12'0 0.0
2018-Feb-04 15:16N 53°38' W 000°12'0 0.0
2018-Feb-04 14:58N 53°38' W 000°12'0 0.0
2018-Feb-04 13:37N 53°38' W 000°12'0 0.0
2018-Feb-04 13:19N 53°38' W 000°12'0 0.0
2018-Feb-04 12:58N 53°38' W 000°12'0 0.0
2018-Feb-04 12:25N 53°38' W 000°12'0 0.0
2018-Feb-04 11:55N 53°38' W 000°12'0 0.0
2018-Feb-04 11:19N 53°38' W 000°12'0 0.0
2018-Feb-04 07:49N 53°38' W 000°12'0 0.0
2018-Feb-04 07:22N 53°38' W 000°12'0 0.0
2018-Feb-04 06:55N 53°38' W 000°12'0 0.0
2018-Feb-04 06:28N 53°38' W 000°12'0 0.0
2018-Feb-04 05:49N 53°38' W 000°12'0 0.0
2018-Feb-04 05:25N 53°38' W 000°12'0 0.0
2018-Feb-04 04:58N 53°38' W 000°12'0 0.0
2018-Feb-04 04:22N 53°38' W 000°12'0 0.0
2018-Feb-04 03:58N 53°38' W 000°12'0 0.0
2018-Feb-04 03:28N 53°38' W 000°12'0 0.0
2018-Feb-04 02:52N 53°38' W 000°12'0 0.0
2018-Feb-04 02:28N 53°38' W 000°12'0 0.0
2018-Feb-04 01:58N 53°38' W 000°12'0 0.0
2018-Feb-04 01:28N 53°38' W 000°12'0 0.0
2018-Feb-04 00:58N 53°38' W 000°12'0 0.0
2018-Feb-04 00:28N 53°38' W 000°12'0 0.0
2018-Feb-03 23:58N 53°38' W 000°12'0 0.0
2018-Feb-03 23:25N 53°38' W 000°12'0 0.0
2018-Feb-03 22:58N 53°38' W 000°12'0 0.0
2018-Feb-03 22:28N 53°38' W 000°12'0 0.0
2018-Feb-03 21:58N 53°38' W 000°12'0 0.0
2018-Feb-03 21:25N 53°38' W 000°12'0 0.0
2018-Feb-03 20:58N 53°38' W 000°12'0 0.0
2018-Feb-03 20:28N 53°38' W 000°12'0 0.0
2018-Feb-03 19:58N 53°38' W 000°12'0 0.0
2018-Feb-03 18:25N 53°38' W 000°12'0 0.0
2018-Feb-03 17:58N 53°38' W 000°12'0 0.0
2018-Feb-03 17:28N 53°38' W 000°12'0 0.0
2018-Feb-03 16:58N 53°38' W 000°12'0 0.0
2018-Feb-03 15:37N 53°38' W 000°12'0 0.0
2018-Feb-03 15:28N 53°38' W 000°12'0 0.0
2018-Feb-03 14:58N 53°38' W 000°12'0 0.0
2018-Feb-03 14:28N 53°38' W 000°12'0 0.0
2018-Feb-03 13:58N 53°38' W 000°12'0 0.0
2018-Feb-03 13:28N 53°38' W 000°12'0 0.0
2018-Feb-03 12:58N 53°38' W 000°12'0 0.0
2018-Feb-03 12:25N 53°38' W 000°12'0 0.0
2018-Feb-03 11:58N 53°38' W 000°12'0 0.0
2018-Feb-03 11:28N 53°38' W 000°12'0 0.0
2018-Feb-03 10:55N 53°38' W 000°12'0 0.0
2018-Feb-03 10:28N 53°38' W 000°12'0 0.0
2018-Feb-03 09:55N 53°38' W 000°12'0 0.0
2018-Feb-03 09:28N 53°38' W 000°12'0 0.0
2018-Feb-03 08:58N 53°38' W 000°12'0 0.0
2018-Feb-03 08:28N 53°38' W 000°12'0 0.0
2018-Feb-03 07:58N 53°38' W 000°12'0 0.0
2018-Feb-03 06:28N 53°38' W 000°12'0 0.0
2018-Feb-03 05:58N 53°38' W 000°12'0 0.0
2018-Feb-03 05:28N 53°38' W 000°12'0 0.0
2018-Feb-03 04:58N 53°38' W 000°12'0 0.0
2018-Feb-03 03:58N 53°38' W 000°12'0 0.0
2018-Feb-03 03:28N 53°38' W 000°12'0 0.0
2018-Feb-03 01:58N 53°38' W 000°12'0 0.0
2018-Feb-03 01:28N 53°38' W 000°12'0 0.0
2018-Feb-03 00:58N 53°38' W 000°12'0 0.0
2018-Feb-03 00:28N 53°38' W 000°12'0 0.0
2018-Feb-02 23:58N 53°38' W 000°12'0 0.0
2018-Feb-02 23:28N 53°38' W 000°12'0 0.0
2018-Feb-02 22:58N 53°38' W 000°12'0 0.0
2018-Feb-02 22:28N 53°38' W 000°12'0 0.0
2018-Feb-02 21:58N 53°38' W 000°12'0 0.0
2018-Feb-02 21:28N 53°38' W 000°12'0 0.0
2018-Feb-02 20:58N 53°38' W 000°12'0 0.0
2018-Feb-02 20:31N 53°38' W 000°12'0 0.0
2018-Feb-02 19:58N 53°38' W 000°12'0 0.0
2018-Feb-02 18:58N 53°38' W 000°12'0 0.0
2018-Feb-02 18:28N 53°38' W 000°12'0 0.0
2018-Feb-02 17:58N 53°38' W 000°12'0 0.0
2018-Feb-02 17:13N 53°38' W 000°12'0 0.0
2018-Feb-02 16:52N 53°38' W 000°12'0 0.0
2018-Feb-02 16:13N 53°38' W 000°12'0 0.0
2018-Feb-02 15:25N 53°38' W 000°12'0 0.0
2018-Feb-02 14:28N 53°38' W 000°12'0 0.0
2018-Feb-02 13:55N 53°38' W 000°12'0 0.0
2018-Feb-02 13:28N 53°38' W 000°12'0 0.0
2018-Feb-02 12:58N 53°38' W 000°12'0 0.0
2018-Feb-02 12:25N 53°38' W 000°12'0 0.0
2018-Feb-02 11:52N 53°38' W 000°12'0 0.0
2018-Feb-02 11:28N 53°38' W 000°12'0 0.0
2018-Feb-02 10:58N 53°38' W 000°12'0 0.0
2018-Feb-02 10:28N 53°38' W 000°12'0 0.0
2018-Feb-02 09:58N 53°38' W 000°12'0 0.0
2018-Feb-02 09:28N 53°38' W 000°12'0 0.0
2018-Feb-02 08:58N 53°38' W 000°12'0 0.0
2018-Feb-02 08:28N 53°38' W 000°12'0 0.0
2018-Feb-02 07:58N 53°38' W 000°12'0 0.0
2018-Feb-02 07:25N 53°38' W 000°12'0 0.0
2018-Feb-02 06:58N 53°38' W 000°12'0 0.0
2018-Feb-02 06:28N 53°38' W 000°12'0 0.0
2018-Feb-02 05:58N 53°38' W 000°12'0 0.0
2018-Feb-02 05:28N 53°38' W 000°12'0 0.0
2018-Feb-02 04:58N 53°38' W 000°12'0 0.0
2018-Feb-02 04:28N 53°38' W 000°12'0 0.0
2018-Feb-02 03:58N 53°38' W 000°12'0 0.0
2018-Feb-02 03:28N 53°38' W 000°12'0 0.0
2018-Feb-02 02:58N 53°38' W 000°12'0 0.0
2018-Feb-02 02:28N 53°38' W 000°12'0 0.0
2018-Feb-02 01:58N 53°38' W 000°12'0 0.0
2018-Feb-02 01:28N 53°38' W 000°12'0 0.0
2018-Feb-02 00:58N 53°38' W 000°12'0 0.0
2018-Feb-02 00:28N 53°38' W 000°12'0 0.0
2018-Feb-01 23:58N 53°38' W 000°12'0 0.0
2018-Feb-01 23:28N 53°38' W 000°12'0 0.0
2018-Feb-01 22:58N 53°38' W 000°12'0 0.0
2018-Feb-01 21:58N 53°38' W 000°12'0 0.0
2018-Feb-01 21:28N 53°38' W 000°12'0 0.0
2018-Feb-01 19:28N 53°38' W 000°12'0 0.0
2018-Feb-01 18:58N 53°38' W 000°12'0 0.0
2018-Feb-01 18:22N 53°38' W 000°12'0 0.0
2018-Feb-01 17:58N 53°38' W 000°12'0 0.0
2018-Feb-01 17:28N 53°38' W 000°12'0 0.0
2018-Feb-01 16:58N 53°38' W 000°12'0 0.0
2018-Feb-01 16:28N 53°38' W 000°12'0 0.0
2018-Feb-01 15:55N 53°38' W 000°12'0 0.0
2018-Feb-01 15:25N 53°38' W 000°12'0 0.0
2018-Feb-01 14:58N 53°38' W 000°12'0 0.0
2018-Feb-01 13:28N 53°38' W 000°12'0 0.0
2018-Feb-01 12:58N 53°38' W 000°12'0 0.0
2018-Feb-01 12:28N 53°38' W 000°12'0 0.0
2018-Feb-01 11:58N 53°38' W 000°12'0 0.0
2018-Feb-01 10:58N 53°38' W 000°12'0 0.0
2018-Feb-01 10:28N 53°38' W 000°12'0 0.0
2018-Feb-01 09:55N 53°38' W 000°12'0 0.0
2018-Feb-01 09:16N 53°38' W 000°12'0 0.0
2018-Feb-01 08:58N 53°38' W 000°12'0 0.0
2018-Feb-01 08:28N 53°38' W 000°12'0 0.0
2018-Feb-01 07:28N 53°38' W 000°12'0 0.0
2018-Feb-01 06:58N 53°38' W 000°12'0 0.0
2018-Feb-01 06:28N 53°38' W 000°12'0 0.0
2018-Feb-01 05:52N 53°38' W 000°12'0 0.0
2018-Feb-01 05:22N 53°38' W 000°12'0 0.0
2018-Feb-01 04:58N 53°38' W 000°12'0 0.0
2018-Feb-01 04:22N 53°38' W 000°12'0 0.0
2018-Feb-01 03:55N 53°38' W 000°12'0 0.0
2018-Feb-01 02:58N 53°38' W 000°12'0 0.0
2018-Feb-01 02:28N 53°38' W 000°12'0 0.0
2018-Feb-01 01:58N 53°38' W 000°12'0 0.0
2018-Feb-01 01:28N 53°38' W 000°12'0 0.0
2018-Feb-01 00:55N 53°38' W 000°12'0 0.0
2018-Feb-01 00:28N 53°38' W 000°12'0 0.0
2018-Jan-31 23:58N 53°38' W 000°12'0 0.0
2018-Jan-31 22:58N 53°38' W 000°12'0 0.0
2018-Jan-31 22:28N 53°38' W 000°12'0 0.0
2018-Jan-31 20:58N 53°38' W 000°12'0 0.0
2018-Jan-31 19:52N 53°38' W 000°12'0 0.0
2018-Jan-31 19:28N 53°38' W 000°12'0 0.0
2018-Jan-31 18:58N 53°38' W 000°12'0 0.0
2018-Jan-31 18:28N 53°38' W 000°12'  

Dump ship's entire track history